Waterville, New York
Current Conditions -  °F | °C
As of 6:53 AM on Friday 19 Dec 2014 (Local Time) from KRME Reporting Station
Overcast Overcast  
Wind Chill: 15°   Ceiling: 2300
Heat Index: 25°   Visibility: 8mi
Dew Point: 23°   Wind: 10mph
Humidity: 92%   Direction: 310°NW
Pressure: 30.07"   Gusts: NA
Location:  42.93°N, 75.38°W
Report Text: KRME 191153Z AUTO 31009KT 8SM OVC023 M04/M05 A3007 RMK AO2 SLP187 70002 T10391050 11022 21039 53013
Loading
Personal Weather Stations






























Interactive Weather Map New forecast layout! Learn more

10-Day Weather Forecast

Advertisements
Track Severe Weather on mobile